sensor_id;sensor_type;location;lat;lon;timestamp;P1;durP1;ratioP1;P2;durP2;ratioP2
77206;SDS011;66190;50.708;7.906;2023-08-20T08:34:43;11.13;;;5.97;;
77206;SDS011;66190;50.708;7.906;2023-08-20T08:37:09;10.68;;;4.82;;
77206;SDS011;66190;50.708;7.906;2023-08-20T08:39:34;10.40;;;5.53;;
77206;SDS011;66190;50.708;7.906;2023-08-20T08:42:05;12.40;;;6.07;;
77206;SDS011;66190;50.708;7.906;2023-08-20T08:44:32;9.20;;;5.10;;
77206;SDS011;66190;50.708;7.906;2023-08-20T08:46:58;8.98;;;5.55;;
77206;SDS011;66190;50.708;7.906;2023-08-20T08:49:24;8.15;;;5.13;;
77206;SDS011;66190;50.708;7.906;2023-08-20T08:51:51;9.27;;;5.60;;
77206;SDS011;66190;50.708;7.906;2023-08-20T08:54:20;9.57;;;5.22;;
77206;SDS011;66190;50.708;7.906;2023-08-20T08:56:46;8.77;;;4.53;;
77206;SDS011;66190;50.708;7.906;2023-08-20T08:59:11;8.43;;;4.47;;
77206;SDS011;66190;50.708;7.906;2023-08-20T09:01:40;10.43;;;5.30;;
77206;SDS011;66190;50.708;7.906;2023-08-20T09:04:06;9.05;;;5.15;;
77206;SDS011;66190;50.708;7.906;2023-08-20T09:06:47;10.32;;;5.13;;
77206;SDS011;66190;50.708;7.906;2023-08-20T09:09:14;9.60;;;5.60;;
77206;SDS011;66190;50.708;7.906;2023-08-20T09:11:41;11.45;;;4.93;;
77206;SDS011;66190;50.708;7.906;2023-08-20T09:14:06;9.83;;;5.23;;
77206;SDS011;66190;50.708;7.906;2023-08-20T09:16:32;9.27;;;5.20;;
77206;SDS011;66190;50.708;7.906;2023-08-20T09:19:00;8.00;;;4.97;;
77206;SDS011;66190;50.708;7.906;2023-08-20T09:21:29;8.85;;;5.13;;
77206;SDS011;66190;50.708;7.906;2023-08-20T09:23:57;8.73;;;5.13;;
77206;SDS011;66190;50.708;7.906;2023-08-20T09:26:25;9.68;;;5.25;;
77206;SDS011;66190;50.708;7.906;2023-08-20T09:28:54;9.57;;;5.00;;
77206;SDS011;66190;50.708;7.906;2023-08-20T09:31:20;9.50;;;5.07;;
77206;SDS011;66190;50.708;7.906;2023-08-20T09:33:51;8.53;;;4.90;;
77206;SDS011;66190;50.708;7.906;2023-08-20T09:36:18;8.32;;;5.15;;
77206;SDS011;66190;50.708;7.906;2023-08-20T09:38:44;8.47;;;4.83;;
77206;SDS011;66190;50.708;7.906;2023-08-20T09:41:09;8.03;;;5.17;;
77206;SDS011;66190;50.708;7.906;2023-08-20T09:43:40;9.07;;;5.53;;
77206;SDS011;66190;50.708;7.906;2023-08-20T09:46:07;8.98;;;4.97;;
77206;SDS011;66190;50.708;7.906;2023-08-20T09:48:35;8.65;;;5.10;;
77206;SDS011;66190;50.708;7.906;2023-08-20T09:51:04;8.05;;;4.78;;
77206;SDS011;66190;50.708;7.906;2023-08-20T09:53:35;9.43;;;4.57;;
77206;SDS011;66190;50.708;7.906;2023-08-20T09:56:09;8.83;;;4.20;;
77206;SDS011;66190;50.708;7.906;2023-08-20T09:58:39;9.25;;;4.60;;
77206;SDS011;66190;50.708;7.906;2023-08-20T10:01:05;8.35;;;4.80;;
77206;SDS011;66190;50.708;7.906;2023-08-20T10:03:31;8.32;;;4.20;;
77206;SDS011;66190;50.708;7.906;2023-08-20T10:05:57;8.53;;;4.73;;
77206;SDS011;66190;50.708;7.906;2023-08-20T10:08:25;10.13;;;4.50;;
77206;SDS011;66190;50.708;7.906;2023-08-20T10:10:51;8.52;;;4.35;;
77206;SDS011;66190;50.708;7.906;2023-08-20T10:13:17;7.37;;;4.33;;
77206;SDS011;66190;50.708;7.906;2023-08-20T10:15:42;8.82;;;3.92;;
77206;SDS011;66190;50.708;7.906;2023-08-20T10:18:08;8.63;;;3.90;;
77206;SDS011;66190;50.708;7.906;2023-08-20T10:20:34;8.32;;;4.40;;
77206;SDS011;66190;50.708;7.906;2023-08-20T10:23:00;8.20;;;3.90;;
77206;SDS011;66190;50.708;7.906;2023-08-20T10:25:28;7.72;;;4.47;;
77206;SDS011;66190;50.708;7.906;2023-08-20T10:28:10;7.22;;;4.30;;
77206;SDS011;66190;50.708;7.906;2023-08-20T10:30:38;9.43;;;3.65;;
77206;SDS011;66190;50.708;7.906;2023-08-20T10:33:03;7.90;;;4.00;;
77206;SDS011;66190;50.708;7.906;2023-08-20T10:40:49;6.70;;;3.72;;
77206;SDS011;66190;50.708;7.906;2023-08-20T10:51:27;6.97;;;4.23;;
77206;SDS011;66190;50.708;7.906;2023-08-20T10:56:25;8.10;;;4.30;;
77206;SDS011;66190;50.708;7.906;2023-08-20T10:59:05;7.28;;;3.70;;
77206;SDS011;66190;50.708;7.906;2023-08-20T11:01:32;6.50;;;3.70;;
77206;SDS011;66190;50.708;7.906;2023-08-20T11:03:58;6.07;;;3.40;;
77206;SDS011;66190;50.708;7.906;2023-08-20T11:06:30;7.07;;;3.35;;
77206;SDS011;66190;50.708;7.906;2023-08-20T11:08:59;8.05;;;4.60;;
77206;SDS011;66190;50.708;7.906;2023-08-20T11:11:25;7.30;;;3.50;;
77206;SDS011;66190;50.708;7.906;2023-08-20T11:13:50;7.70;;;3.70;;
77206;SDS011;66190;50.708;7.906;2023-08-20T11:16:16;9.70;;;3.90;;
77206;SDS011;66190;50.708;7.906;2023-08-20T11:18:42;8.18;;;4.40;;
77206;SDS011;66190;50.708;7.906;2023-08-20T11:21:08;7.33;;;4.20;;
77206;SDS011;66190;50.708;7.906;2023-08-20T11:23:34;8.20;;;3.75;;
77206;SDS011;66190;50.708;7.906;2023-08-20T11:26:00;7.35;;;3.65;;
77206;SDS011;66190;50.708;7.906;2023-08-20T11:28:27;7.97;;;3.95;;
77206;SDS011;66190;50.708;7.906;2023-08-20T11:30:53;7.40;;;4.07;;
77206;SDS011;66190;50.708;7.906;2023-08-20T11:33:20;8.32;;;3.55;;
77206;SDS011;66190;50.708;7.906;2023-08-20T11:35:46;8.15;;;4.13;;
77206;SDS011;66190;50.708;7.906;2023-08-20T11:38:12;7.57;;;3.37;;
77206;SDS011;66190;50.708;7.906;2023-08-20T11:40:38;7.43;;;3.97;;
77206;SDS011;66190;50.708;7.906;2023-08-20T11:43:03;6.63;;;3.10;;
77206;SDS011;66190;50.708;7.906;2023-08-20T11:45:29;6.75;;;4.00;;
77206;SDS011;66190;50.708;7.906;2023-08-20T11:47:57;7.13;;;3.60;;
77206;SDS011;66190;50.708;7.906;2023-08-20T11:50:23;7.20;;;3.22;;
77206;SDS011;66190;50.708;7.906;2023-08-20T11:52:51;8.27;;;3.47;;
77206;SDS011;66190;50.708;7.906;2023-08-20T11:55:26;7.05;;;3.08;;
77206;SDS011;66190;50.708;7.906;2023-08-20T11:57:55;8.13;;;3.00;;
77206;SDS011;66190;50.708;7.906;2023-08-20T12:00:27;5.63;;;2.90;;
77206;SDS011;66190;50.708;7.906;2023-08-20T12:02:54;7.55;;;3.00;;
77206;SDS011;66190;50.708;7.906;2023-08-20T12:05:20;6.80;;;3.53;;
77206;SDS011;66190;50.708;7.906;2023-08-20T12:07:59;7.68;;;4.13;;
77206;SDS011;66190;50.708;7.906;2023-08-20T12:10:27;6.97;;;3.40;;
77206;SDS011;66190;50.708;7.906;2023-08-20T12:12:54;6.65;;;3.42;;
77206;SDS011;66190;50.708;7.906;2023-08-20T12:15:21;8.30;;;3.60;;
77206;SDS011;66190;50.708;7.906;2023-08-20T12:18:03;8.90;;;3.60;;
77206;SDS011;66190;50.708;7.906;2023-08-20T12:20:30;6.88;;;3.78;;
77206;SDS011;66190;50.708;7.906;2023-08-20T12:22:57;7.10;;;3.53;;
77206;SDS011;66190;50.708;7.906;2023-08-20T12:25:25;7.15;;;3.60;;
77206;SDS011;66190;50.708;7.906;2023-08-20T12:27:50;6.40;;;3.25;;
77206;SDS011;66190;50.708;7.906;2023-08-20T12:30:16;7.10;;;3.33;;
77206;SDS011;66190;50.708;7.906;2023-08-20T12:32:41;7.97;;;3.53;;
77206;SDS011;66190;50.708;7.906;2023-08-20T12:35:07;6.67;;;3.47;;
77206;SDS011;66190;50.708;7.906;2023-08-20T12:37:32;7.22;;;3.53;;
77206;SDS011;66190;50.708;7.906;2023-08-20T12:39:58;7.37;;;4.10;;
77206;SDS011;66190;50.708;7.906;2023-08-20T12:42:23;9.57;;;3.43;;
77206;SDS011;66190;50.708;7.906;2023-08-20T12:44:49;7.23;;;3.40;;
77206;SDS011;66190;50.708;7.906;2023-08-20T12:47:14;7.87;;;3.73;;
77206;SDS011;66190;50.708;7.906;2023-08-20T12:49:40;7.93;;;3.77;;
77206;SDS011;66190;50.708;7.906;2023-08-20T12:52:05;7.80;;;3.63;;
77206;SDS011;66190;50.708;7.906;2023-08-20T12:54:30;7.27;;;3.50;;
77206;SDS011;66190;50.708;7.906;2023-08-20T12:56:56;7.17;;;3.70;;
77206;SDS011;66190;50.708;7.906;2023-08-20T12:59:21;6.90;;;3.23;;
77206;SDS011;66190;50.708;7.906;2023-08-20T13:01:50;6.20;;;3.13;;
77206;SDS011;66190;50.708;7.906;2023-08-20T13:04:15;7.35;;;3.33;;
77206;SDS011;66190;50.708;7.906;2023-08-20T13:06:41;8.30;;;3.58;;
77206;SDS011;66190;50.708;7.906;2023-08-20T13:09:07;6.97;;;2.93;;
77206;SDS011;66190;50.708;7.906;2023-08-20T13:11:34;6.35;;;3.17;;
77206;SDS011;66190;50.708;7.906;2023-08-20T13:14:03;6.70;;;3.05;;
77206;SDS011;66190;50.708;7.906;2023-08-20T13:16:29;8.05;;;3.78;;
77206;SDS011;66190;50.708;7.906;2023-08-20T13:18:55;7.20;;;3.67;;
77206;SDS011;66190;50.708;7.906;2023-08-20T13:21:20;6.60;;;3.37;;
77206;SDS011;66190;50.708;7.906;2023-08-20T13:23:46;7.13;;;3.25;;
77206;SDS011;66190;50.708;7.906;2023-08-20T13:26:12;7.17;;;3.33;;
77206;SDS011;66190;50.708;7.906;2023-08-20T13:28:37;7.70;;;4.10;;
77206;SDS011;66190;50.708;7.906;2023-08-20T13:31:02;6.93;;;3.77;;
77206;SDS011;66190;50.708;7.906;2023-08-20T13:33:28;7.43;;;3.30;;
77206;SDS011;66190;50.708;7.906;2023-08-20T13:35:53;6.63;;;3.30;;
77206;SDS011;66190;50.708;7.906;2023-08-20T13:38:19;7.37;;;3.40;;
77206;SDS011;66190;50.708;7.906;2023-08-20T13:40:47;7.03;;;3.35;;
77206;SDS011;66190;50.708;7.906;2023-08-20T13:43:12;10.50;;;3.67;;
77206;SDS011;66190;50.708;7.906;2023-08-20T13:45:38;7.25;;;3.00;;
77206;SDS011;66190;50.708;7.906;2023-08-20T13:48:03;6.97;;;3.53;;
77206;SDS011;66190;50.708;7.906;2023-08-20T13:50:30;7.13;;;3.60;;
77206;SDS011;66190;50.708;7.906;2023-08-20T13:52:56;7.13;;;3.50;;
77206;SDS011;66190;50.708;7.906;2023-08-20T13:55:21;7.87;;;3.33;;
77206;SDS011;66190;50.708;7.906;2023-08-20T13:57:46;8.43;;;3.38;;
77206;SDS011;66190;50.708;7.906;2023-08-20T14:00:12;7.00;;;3.33;;
77206;SDS011;66190;50.708;7.906;2023-08-20T14:02:41;6.53;;;3.17;;
77206;SDS011;66190;50.708;7.906;2023-08-20T14:05:06;6.00;;;3.13;;
77206;SDS011;66190;50.708;7.906;2023-08-20T14:07:32;6.72;;;3.15;;
77206;SDS011;66190;50.708;7.906;2023-08-20T14:09:58;5.90;;;3.37;;
77206;SDS011;66190;50.708;7.906;2023-08-20T14:12:24;6.78;;;3.78;;
77206;SDS011;66190;50.708;7.906;2023-08-20T14:14:49;6.20;;;2.93;;
77206;SDS011;66190;50.708;7.906;2023-08-20T14:17:15;6.40;;;3.20;;
77206;SDS011;66190;50.708;7.906;2023-08-20T14:19:40;6.03;;;3.00;;
77206;SDS011;66190;50.708;7.906;2023-08-20T14:22:06;7.93;;;3.67;;
77206;SDS011;66190;50.708;7.906;2023-08-20T14:24:32;7.20;;;3.45;;
77206;SDS011;66190;50.708;7.906;2023-08-20T14:26:57;9.17;;;3.30;;
77206;SDS011;66190;50.708;7.906;2023-08-20T14:29:23;6.60;;;3.47;;
77206;SDS011;66190;50.708;7.906;2023-08-20T14:31:48;6.97;;;2.90;;
77206;SDS011;66190;50.708;7.906;2023-08-20T14:34:13;6.20;;;2.97;;
77206;SDS011;66190;50.708;7.906;2023-08-20T14:36:39;6.97;;;3.10;;
77206;SDS011;66190;50.708;7.906;2023-08-20T14:39:04;6.83;;;3.10;;
77206;SDS011;66190;50.708;7.906;2023-08-20T14:41:30;6.68;;;3.30;;
77206;SDS011;66190;50.708;7.906;2023-08-20T14:43:56;6.83;;;3.17;;
77206;SDS011;66190;50.708;7.906;2023-08-20T14:46:21;6.43;;;3.20;;
77206;SDS011;66190;50.708;7.906;2023-08-20T14:48:47;6.97;;;3.43;;
77206;SDS011;66190;50.708;7.906;2023-08-20T14:51:13;5.45;;;2.65;;
77206;SDS011;66190;50.708;7.906;2023-08-20T14:53:38;6.37;;;3.13;;
77206;SDS011;66190;50.708;7.906;2023-08-20T14:56:04;6.07;;;3.05;;
77206;SDS011;66190;50.708;7.906;2023-08-20T14:58:29;6.90;;;2.97;;
77206;SDS011;66190;50.708;7.906;2023-08-20T15:00:55;5.93;;;2.95;;
77206;SDS011;66190;50.708;7.906;2023-08-20T15:03:20;6.57;;;3.03;;
77206;SDS011;66190;50.708;7.906;2023-08-20T15:05:47;6.30;;;2.85;;
77206;SDS011;66190;50.708;7.906;2023-08-20T15:08:13;6.17;;;2.80;;
77206;SDS011;66190;50.708;7.906;2023-08-20T15:10:39;8.90;;;3.20;;
77206;SDS011;66190;50.708;7.906;2023-08-20T15:13:04;6.18;;;3.10;;
77206;SDS011;66190;50.708;7.906;2023-08-20T15:15:30;5.77;;;3.00;;
77206;SDS011;66190;50.708;7.906;2023-08-20T15:17:56;6.28;;;3.50;;
77206;SDS011;66190;50.708;7.906;2023-08-20T15:20:22;5.77;;;3.00;;
77206;SDS011;66190;50.708;7.906;2023-08-20T15:22:47;6.30;;;3.63;;
77206;SDS011;66190;50.708;7.906;2023-08-20T15:25:13;6.30;;;4.00;;
77206;SDS011;66190;50.708;7.906;2023-08-20T15:27:39;7.28;;;3.80;;
77206;SDS011;66190;50.708;7.906;2023-08-20T15:30:05;6.85;;;3.83;;
77206;SDS011;66190;50.708;7.906;2023-08-20T15:32:34;6.88;;;3.78;;
77206;SDS011;66190;50.708;7.906;2023-08-20T15:35:00;6.30;;;3.90;;
77206;SDS011;66190;50.708;7.906;2023-08-20T15:37:28;6.53;;;3.58;;
77206;SDS011;66190;50.708;7.906;2023-08-20T15:39:54;7.97;;;4.32;;
77206;SDS011;66190;50.708;7.906;2023-08-20T15:42:19;7.43;;;4.00;;
77206;SDS011;66190;50.708;7.906;2023-08-20T15:44:44;8.53;;;4.77;;
77206;SDS011;66190;50.708;7.906;2023-08-20T15:47:11;7.03;;;4.55;;
77206;SDS011;66190;50.708;7.906;2023-08-20T15:49:37;6.27;;;4.50;;
77206;SDS011;66190;50.708;7.906;2023-08-20T15:52:02;7.47;;;4.07;;
77206;SDS011;66190;50.708;7.906;2023-08-20T15:54:28;6.88;;;4.75;;
77206;SDS011;66190;50.708;7.906;2023-08-20T15:56:53;6.77;;;4.77;;
77206;SDS011;66190;50.708;7.906;2023-08-20T15:59:19;7.73;;;4.93;;
77206;SDS011;66190;50.708;7.906;2023-08-20T16:01:44;7.28;;;5.03;;
77206;SDS011;66190;50.708;7.906;2023-08-20T16:04:10;6.63;;;4.47;;
77206;SDS011;66190;50.708;7.906;2023-08-20T16:06:35;7.07;;;5.30;;
77206;SDS011;66190;50.708;7.906;2023-08-20T16:09:01;7.30;;;4.80;;
77206;SDS011;66190;50.708;7.906;2023-08-20T16:11:28;6.87;;;5.07;;
77206;SDS011;66190;50.708;7.906;2023-08-20T16:13:54;6.88;;;4.97;;
77206;SDS011;66190;50.708;7.906;2023-08-20T16:16:20;6.70;;;4.77;;
77206;SDS011;66190;50.708;7.906;2023-08-20T16:18:45;7.85;;;5.22;;
77206;SDS011;66190;50.708;7.906;2023-08-20T16:21:11;7.17;;;4.97;;
77206;SDS011;66190;50.708;7.906;2023-08-20T16:23:36;7.23;;;5.10;;
77206;SDS011;66190;50.708;7.906;2023-08-20T16:26:01;7.90;;;5.23;;
77206;SDS011;66190;50.708;7.906;2023-08-20T16:28:28;7.05;;;5.07;;
77206;SDS011;66190;50.708;7.906;2023-08-20T16:30:55;6.70;;;4.78;;
77206;SDS011;66190;50.708;7.906;2023-08-20T16:33:20;7.80;;;5.27;;
77206;SDS011;66190;50.708;7.906;2023-08-20T16:35:49;8.75;;;5.05;;
77206;SDS011;66190;50.708;7.906;2023-08-20T16:38:20;7.30;;;5.03;;
77206;SDS011;66190;50.708;7.906;2023-08-20T16:40:58;7.57;;;5.10;;
77206;SDS011;66190;50.708;7.906;2023-08-20T16:43:26;7.53;;;5.53;;
77206;SDS011;66190;50.708;7.906;2023-08-20T16:45:55;7.10;;;5.53;;
77206;SDS011;66190;50.708;7.906;2023-08-20T16:48:24;7.13;;;5.07;;
77206;SDS011;66190;50.708;7.906;2023-08-20T16:50:50;8.00;;;5.28;;
77206;SDS011;66190;50.708;7.906;2023-08-20T16:53:16;9.83;;;5.47;;
77206;SDS011;66190;50.708;7.906;2023-08-20T16:55:41;9.30;;;5.53;;
77206;SDS011;66190;50.708;7.906;2023-08-20T16:58:07;8.20;;;5.23;;
77206;SDS011;66190;50.708;7.906;2023-08-20T17:00:32;7.93;;;5.73;;
77206;SDS011;66190;50.708;7.906;2023-08-20T17:02:59;7.30;;;5.55;;
77206;SDS011;66190;50.708;7.906;2023-08-20T17:05:25;7.40;;;4.78;;
77206;SDS011;66190;50.708;7.906;2023-08-20T17:07:51;8.03;;;5.43;;
77206;SDS011;66190;50.708;7.906;2023-08-20T17:10:17;7.82;;;5.40;;
77206;SDS011;66190;50.708;7.906;2023-08-20T17:12:43;7.68;;;5.40;;
77206;SDS011;66190;50.708;7.906;2023-08-20T17:15:09;8.13;;;4.70;;
77206;SDS011;66190;50.708;7.906;2023-08-20T17:17:35;7.88;;;4.50;;
77206;SDS011;66190;50.708;7.906;2023-08-20T17:20:00;7.13;;;4.33;;
77206;SDS011;66190;50.708;7.906;2023-08-20T17:22:26;7.50;;;4.50;;
77206;SDS011;66190;50.708;7.906;2023-08-20T17:24:51;7.28;;;4.47;;
77206;SDS011;66190;50.708;7.906;2023-08-20T17:27:16;7.70;;;5.10;;
77206;SDS011;66190;50.708;7.906;2023-08-20T17:29:42;8.27;;;4.97;;
77206;SDS011;66190;50.708;7.906;2023-08-20T17:32:08;7.82;;;4.53;;
77206;SDS011;66190;50.708;7.906;2023-08-20T17:34:36;8.17;;;4.93;;
77206;SDS011;66190;50.708;7.906;2023-08-20T17:37:03;9.98;;;4.82;;
77206;SDS011;66190;50.708;7.906;2023-08-20T17:39:28;8.53;;;5.00;;
77206;SDS011;66190;50.708;7.906;2023-08-20T17:41:54;9.20;;;5.53;;
77206;SDS011;66190;50.708;7.906;2023-08-20T17:44:19;9.02;;;5.40;;
77206;SDS011;66190;50.708;7.906;2023-08-20T17:46:45;9.07;;;5.33;;
77206;SDS011;66190;50.708;7.906;2023-08-20T17:49:12;9.68;;;5.85;;
77206;SDS011;66190;50.708;7.906;2023-08-20T17:51:38;8.82;;;5.70;;
77206;SDS011;66190;50.708;7.906;2023-08-20T17:54:03;9.47;;;5.50;;
77206;SDS011;66190;50.708;7.906;2023-08-20T17:56:29;9.10;;;5.45;;
77206;SDS011;66190;50.708;7.906;2023-08-20T17:58:55;8.43;;;5.80;;
77206;SDS011;66190;50.708;7.906;2023-08-20T18:01:20;9.27;;;6.20;;
77206;SDS011;66190;50.708;7.906;2023-08-20T18:03:46;8.77;;;5.67;;
77206;SDS011;66190;50.708;7.906;2023-08-20T18:06:11;10.50;;;6.40;;
77206;SDS011;66190;50.708;7.906;2023-08-20T18:08:37;9.77;;;6.57;;
77206;SDS011;66190;50.708;7.906;2023-08-20T18:11:03;12.07;;;8.35;;
77206;SDS011;66190;50.708;7.906;2023-08-20T18:13:29;11.00;;;6.70;;
77206;SDS011;66190;50.708;7.906;2023-08-20T18:15:54;10.38;;;6.55;;
77206;SDS011;66190;50.708;7.906;2023-08-20T18:18:20;12.00;;;6.67;;
77206;SDS011;66190;50.708;7.906;2023-08-20T18:20:45;9.10;;;6.20;;
77206;SDS011;66190;50.708;7.906;2023-08-20T18:23:11;10.88;;;6.72;;
77206;SDS011;66190;50.708;7.906;2023-08-20T18:25:37;9.90;;;6.07;;
77206;SDS011;66190;50.708;7.906;2023-08-20T18:28:02;10.03;;;6.63;;
77206;SDS011;66190;50.708;7.906;2023-08-20T18:30:28;10.80;;;5.97;;
77206;SDS011;66190;50.708;7.906;2023-08-20T18:32:54;8.73;;;6.22;;
77206;SDS011;66190;50.708;7.906;2023-08-20T18:35:21;9.10;;;6.20;;
77206;SDS011;66190;50.708;7.906;2023-08-20T18:37:46;11.43;;;6.57;;
77206;SDS011;66190;50.708;7.906;2023-08-20T18:40:12;9.47;;;6.40;;
77206;SDS011;66190;50.708;7.906;2023-08-20T18:42:38;9.95;;;6.63;;
77206;SDS011;66190;50.708;7.906;2023-08-20T18:45:03;10.67;;;6.47;;
77206;SDS011;66190;50.708;7.906;2023-08-20T18:47:29;10.73;;;6.77;;
77206;SDS011;66190;50.708;7.906;2023-08-20T18:49:55;11.07;;;6.00;;
77206;SDS011;66190;50.708;7.906;2023-08-20T18:52:20;10.57;;;6.30;;
77206;SDS011;66190;50.708;7.906;2023-08-20T18:54:46;8.73;;;5.43;;
77206;SDS011;66190;50.708;7.906;2023-08-20T18:57:11;12.60;;;6.20;;
77206;SDS011;66190;50.708;7.906;2023-08-20T18:59:38;10.82;;;6.15;;
77206;SDS011;66190;50.708;7.906;2023-08-20T19:02:03;10.10;;;5.90;;
77206;SDS011;66190;50.708;7.906;2023-08-20T19:04:28;10.18;;;5.88;;
77206;SDS011;66190;50.708;7.906;2023-08-20T19:06:54;9.90;;;5.90;;
77206;SDS011;66190;50.708;7.906;2023-08-20T19:09:19;10.83;;;6.47;;
77206;SDS011;66190;50.708;7.906;2023-08-20T19:11:45;16.20;;;6.70;;
77206;SDS011;66190;50.708;7.906;2023-08-20T19:14:10;10.40;;;5.57;;
77206;SDS011;66190;50.708;7.906;2023-08-20T19:16:36;8.73;;;6.07;;
77206;SDS011;66190;50.708;7.906;2023-08-20T19:19:01;8.00;;;5.30;;
77206;SDS011;66190;50.708;7.906;2023-08-20T19:21:27;9.80;;;6.32;;
77206;SDS011;66190;50.708;7.906;2023-08-20T19:23:52;9.60;;;6.10;;
77206;SDS011;66190;50.708;7.906;2023-08-20T19:26:19;10.23;;;6.60;;
77206;SDS011;66190;50.708;7.906;2023-08-20T19:28:44;10.27;;;6.80;;
77206;SDS011;66190;50.708;7.906;2023-08-20T19:31:10;10.18;;;6.53;;
77206;SDS011;66190;50.708;7.906;2023-08-20T19:33:37;10.07;;;6.53;;
77206;SDS011;66190;50.708;7.906;2023-08-20T19:36:02;12.00;;;7.40;;
77206;SDS011;66190;50.708;7.906;2023-08-20T19:38:28;11.77;;;6.68;;
77206;SDS011;66190;50.708;7.906;2023-08-20T19:40:54;10.33;;;6.50;;
77206;SDS011;66190;50.708;7.906;2023-08-20T19:43:21;11.38;;;6.75;;
77206;SDS011;66190;50.708;7.906;2023-08-20T19:45:47;10.25;;;6.40;;
77206;SDS011;66190;50.708;7.906;2023-08-20T19:48:13;9.07;;;6.18;;
77206;SDS011;66190;50.708;7.906;2023-08-20T19:50:39;9.53;;;5.80;;
77206;SDS011;66190;50.708;7.906;2023-08-20T19:53:05;9.53;;;5.87;;
77206;SDS011;66190;50.708;7.906;2023-08-20T19:55:30;9.43;;;5.88;;
77206;SDS011;66190;50.708;7.906;2023-08-20T19:57:56;10.67;;;6.27;;
77206;SDS011;66190;50.708;7.906;2023-08-20T20:00:22;11.43;;;6.35;;
77206;SDS011;66190;50.708;7.906;2023-08-20T20:02:48;11.77;;;6.67;;
77206;SDS011;66190;50.708;7.906;2023-08-20T20:05:17;10.43;;;6.93;;
77206;SDS011;66190;50.708;7.906;2023-08-20T20:07:44;8.88;;;5.78;;
77206;SDS011;66190;50.708;7.906;2023-08-20T20:10:10;11.52;;;6.40;;
77206;SDS011;66190;50.708;7.906;2023-08-20T20:12:36;12.07;;;6.60;;
77206;SDS011;66190;50.708;7.906;2023-08-20T20:15:04;11.37;;;6.57;;
77206;SDS011;66190;50.708;7.906;2023-08-20T20:17:30;13.93;;;6.80;;
77206;SDS011;66190;50.708;7.906;2023-08-20T20:19:56;12.07;;;7.22;;
77206;SDS011;66190;50.708;7.906;2023-08-20T20:22:22;11.17;;;6.83;;
77206;SDS011;66190;50.708;7.906;2023-08-20T20:24:50;11.27;;;6.50;;
77206;SDS011;66190;50.708;7.906;2023-08-20T20:27:16;11.00;;;6.90;;
77206;SDS011;66190;50.708;7.906;2023-08-20T20:29:41;12.43;;;7.60;;
77206;SDS011;66190;50.708;7.906;2023-08-20T20:32:07;13.53;;;7.87;;
77206;SDS011;66190;50.708;7.906;2023-08-20T20:34:32;11.73;;;7.83;;
77206;SDS011;66190;50.708;7.906;2023-08-20T20:36:57;11.67;;;7.53;;
77206;SDS011;66190;50.708;7.906;2023-08-20T20:39:23;11.53;;;7.57;;
77206;SDS011;66190;50.708;7.906;2023-08-20T20:41:48;13.40;;;8.17;;
77206;SDS011;66190;50.708;7.906;2023-08-20T20:44:14;11.83;;;7.63;;
77206;SDS011;66190;50.708;7.906;2023-08-20T20:46:39;12.47;;;7.53;;
77206;SDS011;66190;50.708;7.906;2023-08-20T20:49:04;11.50;;;7.47;;
77206;SDS011;66190;50.708;7.906;2023-08-20T20:51:30;12.40;;;7.93;;
77206;SDS011;66190;50.708;7.906;2023-08-20T20:53:56;15.90;;;8.73;;
77206;SDS011;66190;50.708;7.906;2023-08-20T20:56:21;14.20;;;8.20;;
77206;SDS011;66190;50.708;7.906;2023-08-20T20:58:47;12.43;;;7.83;;
77206;SDS011;66190;50.708;7.906;2023-08-20T21:01:13;10.93;;;7.35;;
77206;SDS011;66190;50.708;7.906;2023-08-20T21:03:38;12.77;;;8.03;;
77206;SDS011;66190;50.708;7.906;2023-08-20T21:06:04;13.43;;;7.70;;
77206;SDS011;66190;50.708;7.906;2023-08-20T21:08:30;12.18;;;7.38;;
77206;SDS011;66190;50.708;7.906;2023-08-20T21:10:55;15.93;;;7.97;;
77206;SDS011;66190;50.708;7.906;2023-08-20T21:13:21;10.90;;;6.85;;
77206;SDS011;66190;50.708;7.906;2023-08-20T21:15:47;12.57;;;7.13;;
77206;SDS011;66190;50.708;7.906;2023-08-20T21:18:12;11.77;;;7.33;;
77206;SDS011;66190;50.708;7.906;2023-08-20T21:20:37;12.57;;;7.10;;
77206;SDS011;66190;50.708;7.906;2023-08-20T21:23:03;11.43;;;7.80;;
77206;SDS011;66190;50.708;7.906;2023-08-20T21:25:29;12.07;;;6.88;;
77206;SDS011;66190;50.708;7.906;2023-08-20T21:27:54;12.23;;;7.60;;
77206;SDS011;66190;50.708;7.906;2023-08-20T21:30:20;11.90;;;7.63;;
77206;SDS011;66190;50.708;7.906;2023-08-20T21:32:45;12.77;;;7.83;;
77206;SDS011;66190;50.708;7.906;2023-08-20T21:35:11;12.30;;;7.93;;
77206;SDS011;66190;50.708;7.906;2023-08-20T21:37:36;12.50;;;8.30;;
77206;SDS011;66190;50.708;7.906;2023-08-20T21:40:01;14.40;;;7.90;;
77206;SDS011;66190;50.708;7.906;2023-08-20T21:42:27;14.60;;;7.77;;
77206;SDS011;66190;50.708;7.906;2023-08-20T21:44:52;14.43;;;8.57;;
77206;SDS011;66190;50.708;7.906;2023-08-20T21:47:23;14.98;;;8.35;;
77206;SDS011;66190;50.708;7.906;2023-08-20T21:49:50;13.23;;;8.98;;
77206;SDS011;66190;50.708;7.906;2023-08-20T21:52:16;14.48;;;8.50;;
77206;SDS011;66190;50.708;7.906;2023-08-20T21:54:43;13.82;;;8.45;;
77206;SDS011;66190;50.708;7.906;2023-08-20T21:57:09;12.47;;;7.93;;
77206;SDS011;66190;50.708;7.906;2023-08-20T21:59:40;11.75;;;7.95;;
77206;SDS011;66190;50.708;7.906;2023-08-20T22:02:05;14.73;;;8.03;;
77206;SDS011;66190;50.708;7.906;2023-08-20T22:04:31;12.93;;;8.23;;
77206;SDS011;66190;50.708;7.906;2023-08-20T22:06:57;12.80;;;8.25;;
77206;SDS011;66190;50.708;7.906;2023-08-20T22:09:22;14.00;;;8.53;;
77206;SDS011;66190;50.708;7.906;2023-08-20T22:11:49;23.20;;;8.70;;
77206;SDS011;66190;50.708;7.906;2023-08-20T22:14:14;13.63;;;8.20;;
77206;SDS011;66190;50.708;7.906;2023-08-20T22:16:40;13.38;;;8.60;;
77206;SDS011;66190;50.708;7.906;2023-08-20T22:19:06;13.27;;;8.40;;
77206;SDS011;66190;50.708;7.906;2023-08-20T22:21:31;13.23;;;9.43;;
77206;SDS011;66190;50.708;7.906;2023-08-20T22:23:56;13.87;;;8.63;;
77206;SDS011;66190;50.708;7.906;2023-08-20T22:26:22;14.23;;;8.77;;
77206;SDS011;66190;50.708;7.906;2023-08-20T22:28:47;13.63;;;8.60;;
77206;SDS011;66190;50.708;7.906;2023-08-20T22:31:13;14.67;;;9.10;;
77206;SDS011;66190;50.708;7.906;2023-08-20T22:33:39;12.73;;;8.43;;
77206;SDS011;66190;50.708;7.906;2023-08-20T22:36:04;12.30;;;8.33;;
77206;SDS011;66190;50.708;7.906;2023-08-20T22:38:30;13.43;;;8.77;;
77206;SDS011;66190;50.708;7.906;2023-08-20T22:40:55;13.93;;;8.50;;
77206;SDS011;66190;50.708;7.906;2023-08-20T22:43:20;14.80;;;8.53;;
77206;SDS011;66190;50.708;7.906;2023-08-20T22:45:46;14.37;;;8.73;;
77206;SDS011;66190;50.708;7.906;2023-08-20T22:48:11;13.23;;;8.90;;
77206;SDS011;66190;50.708;7.906;2023-08-20T22:50:37;13.18;;;8.02;;
77206;SDS011;66190;50.708;7.906;2023-08-20T22:53:02;15.87;;;8.70;;
77206;SDS011;66190;50.708;7.906;2023-08-20T22:55:28;13.27;;;8.67;;
77206;SDS011;66190;50.708;7.906;2023-08-20T22:57:53;13.77;;;8.17;;
77206;SDS011;66190;50.708;7.906;2023-08-20T23:00:19;13.17;;;8.67;;
77206;SDS011;66190;50.708;7.906;2023-08-20T23:02:45;15.37;;;9.60;;
77206;SDS011;66190;50.708;7.906;2023-08-20T23:05:10;12.57;;;8.50;;
77206;SDS011;66190;50.708;7.906;2023-08-20T23:07:36;17.37;;;9.70;;
77206;SDS011;66190;50.708;7.906;2023-08-20T23:10:01;14.90;;;8.87;;
77206;SDS011;66190;50.708;7.906;2023-08-20T23:12:27;13.45;;;9.05;;
77206;SDS011;66190;50.708;7.906;2023-08-20T23:14:53;13.50;;;9.10;;
77206;SDS011;66190;50.708;7.906;2023-08-20T23:17:18;15.20;;;9.48;;
77206;SDS011;66190;50.708;7.906;2023-08-20T23:19:47;13.23;;;7.80;;
77206;SDS011;66190;50.708;7.906;2023-08-20T23:22:14;14.68;;;9.05;;
77206;SDS011;66190;50.708;7.906;2023-08-20T23:24:40;14.88;;;8.68;;
77206;SDS011;66190;50.708;7.906;2023-08-20T23:27:05;14.00;;;7.80;;